Terminal Aerodrome Forecast
Issued by NWS Binghamton, NY

Home | Current Version | Previous Version | Text Only | Print | Product List | Glossary On
Versions: 1 2 3 4 5 6 7 8 9 10 11 12 13 14 15 16
780
FTUS41 KBGM 241134
TAFBGM
TAF
KBGM 241134Z 2412/2512 33005KT P6SM SKC
     FM241400 34005KT P6SM SKC
     FM250300 00000KT P6SM SKC
      TEMPO 2510/2512 3SM BR SCT006=

USA.gov is the U.S. government's official web portal to all federal, state and local government web resources and services.